sensor_id;sensor_type;location;lat;lon;timestamp;P1;durP1;ratioP1;P2;durP2;ratioP2
31584;SDS011;18191;51.288;12.390;2023-07-29T00:00:51;1.67;;;1.10;;
31584;SDS011;18191;51.288;12.390;2023-07-29T00:05:41;2.53;;;1.13;;
31584;SDS011;18191;51.288;12.390;2023-07-29T00:10:32;5.30;;;1.30;;
31584;SDS011;18191;51.288;12.390;2023-07-29T00:15:25;1.67;;;1.08;;
31584;SDS011;18191;51.288;12.390;2023-07-29T00:20:15;2.50;;;1.40;;
31584;SDS011;18191;51.288;12.390;2023-07-29T00:25:06;1.67;;;1.13;;
31584;SDS011;18191;51.288;12.390;2023-07-29T00:29:56;1.58;;;0.88;;
31584;SDS011;18191;51.288;12.390;2023-07-29T00:34:47;1.83;;;1.25;;
31584;SDS011;18191;51.288;12.390;2023-07-29T00:39:37;2.28;;;1.33;;
31584;SDS011;18191;51.288;12.390;2023-07-29T00:44:27;1.75;;;1.10;;
31584;SDS011;18191;51.288;12.390;2023-07-29T00:49:18;1.65;;;1.05;;
31584;SDS011;18191;51.288;12.390;2023-07-29T00:54:12;2.08;;;1.10;;
31584;SDS011;18191;51.288;12.390;2023-07-29T00:59:03;4.82;;;1.25;;
31584;SDS011;18191;51.288;12.390;2023-07-29T01:03:54;2.75;;;1.25;;
31584;SDS011;18191;51.288;12.390;2023-07-29T01:09:03;1.77;;;1.05;;
31584;SDS011;18191;51.288;12.390;2023-07-29T01:19:04;1.05;;;0.82;;
31584;SDS011;18191;51.288;12.390;2023-07-29T01:24:00;1.38;;;0.98;;
31584;SDS011;18191;51.288;12.390;2023-07-29T01:28:51;1.70;;;1.10;;
31584;SDS011;18191;51.288;12.390;2023-07-29T01:33:48;1.00;;;0.90;;
31584;SDS011;18191;51.288;12.390;2023-07-29T01:38:47;1.48;;;1.15;;
31584;SDS011;18191;51.288;12.390;2023-07-29T01:43:38;2.10;;;1.17;;
31584;SDS011;18191;51.288;12.390;2023-07-29T01:48:33;1.80;;;1.30;;
31584;SDS011;18191;51.288;12.390;2023-07-29T01:53:24;1.45;;;0.90;;
31584;SDS011;18191;51.288;12.390;2023-07-29T01:58:14;1.35;;;1.13;;
31584;SDS011;18191;51.288;12.390;2023-07-29T02:03:05;1.70;;;1.10;;
31584;SDS011;18191;51.288;12.390;2023-07-29T02:07:55;2.08;;;1.20;;
31584;SDS011;18191;51.288;12.390;2023-07-29T02:12:45;1.20;;;1.10;;
31584;SDS011;18191;51.288;12.390;2023-07-29T02:17:36;3.03;;;1.17;;
31584;SDS011;18191;51.288;12.390;2023-07-29T02:22:27;3.42;;;1.98;;
31584;SDS011;18191;51.288;12.390;2023-07-29T02:27:17;2.35;;;1.30;;
31584;SDS011;18191;51.288;12.390;2023-07-29T02:32:07;0.83;;;0.83;;
31584;SDS011;18191;51.288;12.390;2023-07-29T02:36:58;1.30;;;1.20;;
31584;SDS011;18191;51.288;12.390;2023-07-29T02:41:48;2.95;;;1.20;;
31584;SDS011;18191;51.288;12.390;2023-07-29T02:46:39;3.90;;;1.48;;
31584;SDS011;18191;51.288;12.390;2023-07-29T02:51:29;1.33;;;0.93;;
31584;SDS011;18191;51.288;12.390;2023-07-29T02:56:20;1.23;;;1.13;;
31584;SDS011;18191;51.288;12.390;2023-07-29T03:01:10;1.35;;;1.08;;
31584;SDS011;18191;51.288;12.390;2023-07-29T03:06:02;2.65;;;1.45;;
31584;SDS011;18191;51.288;12.390;2023-07-29T03:10:54;3.88;;;1.48;;
31584;SDS011;18191;51.288;12.390;2023-07-29T03:15:45;0.80;;;0.80;;
31584;SDS011;18191;51.288;12.390;2023-07-29T03:20:35;1.87;;;1.30;;
31584;SDS011;18191;51.288;12.390;2023-07-29T03:25:25;5.30;;;1.52;;
31584;SDS011;18191;51.288;12.390;2023-07-29T03:30:18;2.22;;;1.55;;
31584;SDS011;18191;51.288;12.390;2023-07-29T03:35:10;2.25;;;1.55;;
31584;SDS011;18191;51.288;12.390;2023-07-29T03:40:00;2.38;;;1.23;;
31584;SDS011;18191;51.288;12.390;2023-07-29T03:44:50;5.32;;;1.92;;
31584;SDS011;18191;51.288;12.390;2023-07-29T03:49:40;1.67;;;1.40;;
31584;SDS011;18191;51.288;12.390;2023-07-29T03:54:31;3.73;;;1.60;;
31584;SDS011;18191;51.288;12.390;2023-07-29T03:59:21;3.67;;;1.52;;
31584;SDS011;18191;51.288;12.390;2023-07-29T04:04:12;6.53;;;1.83;;
31584;SDS011;18191;51.288;12.390;2023-07-29T04:09:03;3.97;;;1.70;;
31584;SDS011;18191;51.288;12.390;2023-07-29T04:13:53;2.77;;;1.57;;
31584;SDS011;18191;51.288;12.390;2023-07-29T04:18:43;3.70;;;1.30;;
31584;SDS011;18191;51.288;12.390;2023-07-29T04:23:34;6.63;;;1.60;;
31584;SDS011;18191;51.288;12.390;2023-07-29T04:28:25;5.20;;;1.58;;
31584;SDS011;18191;51.288;12.390;2023-07-29T04:33:15;4.18;;;1.92;;
31584;SDS011;18191;51.288;12.390;2023-07-29T04:38:05;3.72;;;2.22;;
31584;SDS011;18191;51.288;12.390;2023-07-29T04:42:56;4.10;;;2.20;;
31584;SDS011;18191;51.288;12.390;2023-07-29T04:47:46;4.68;;;2.58;;
31584;SDS011;18191;51.288;12.390;2023-07-29T04:52:36;5.03;;;2.00;;
31584;SDS011;18191;51.288;12.390;2023-07-29T04:57:27;5.05;;;2.45;;
31584;SDS011;18191;51.288;12.390;2023-07-29T05:02:17;5.35;;;2.30;;
31584;SDS011;18191;51.288;12.390;2023-07-29T05:07:07;2.47;;;1.90;;
31584;SDS011;18191;51.288;12.390;2023-07-29T05:11:58;4.47;;;1.80;;
31584;SDS011;18191;51.288;12.390;2023-07-29T05:16:48;6.32;;;2.28;;
31584;SDS011;18191;51.288;12.390;2023-07-29T05:21:39;8.70;;;1.70;;
31584;SDS011;18191;51.288;12.390;2023-07-29T05:26:30;2.58;;;1.45;;
31584;SDS011;18191;51.288;12.390;2023-07-29T05:31:21;4.57;;;1.40;;
31584;SDS011;18191;51.288;12.390;2023-07-29T05:36:12;1.67;;;1.10;;
31584;SDS011;18191;51.288;12.390;2023-07-29T05:41:02;2.53;;;0.93;;
31584;SDS011;18191;51.288;12.390;2023-07-29T05:45:53;5.13;;;1.17;;
31584;SDS011;18191;51.288;12.390;2023-07-29T05:50:43;1.65;;;1.17;;
31584;SDS011;18191;51.288;12.390;2023-07-29T05:55:33;3.03;;;1.20;;
31584;SDS011;18191;51.288;12.390;2023-07-29T06:00:24;1.17;;;0.95;;
31584;SDS011;18191;51.288;12.390;2023-07-29T06:05:14;2.60;;;1.20;;
31584;SDS011;18191;51.288;12.390;2023-07-29T06:10:04;1.88;;;1.10;;
31584;SDS011;18191;51.288;12.390;2023-07-29T06:14:55;1.60;;;1.25;;
31584;SDS011;18191;51.288;12.390;2023-07-29T06:19:45;1.30;;;1.10;;
31584;SDS011;18191;51.288;12.390;2023-07-29T06:24:36;2.20;;;1.13;;
31584;SDS011;18191;51.288;12.390;2023-07-29T06:29:26;3.88;;;1.33;;
31584;SDS011;18191;51.288;12.390;2023-07-29T06:34:17;1.60;;;1.10;;
31584;SDS011;18191;51.288;12.390;2023-07-29T06:39:08;2.58;;;1.20;;
31584;SDS011;18191;51.288;12.390;2023-07-29T06:43:58;48.20;;;1.93;;
31584;SDS011;18191;51.288;12.390;2023-07-29T06:48:48;1.52;;;1.00;;
31584;SDS011;18191;51.288;12.390;2023-07-29T06:53:38;1.58;;;1.23;;
31584;SDS011;18191;51.288;12.390;2023-07-29T06:58:29;2.38;;;1.23;;
31584;SDS011;18191;51.288;12.390;2023-07-29T07:03:19;0.90;;;0.90;;
31584;SDS011;18191;51.288;12.390;2023-07-29T07:08:09;1.77;;;1.27;;
31584;SDS011;18191;51.288;12.390;2023-07-29T07:13:00;1.70;;;1.25;;
31584;SDS011;18191;51.288;12.390;2023-07-29T07:17:50;3.35;;;1.35;;
31584;SDS011;18191;51.288;12.390;2023-07-29T07:22:41;2.53;;;1.15;;
31584;SDS011;18191;51.288;12.390;2023-07-29T07:27:32;1.77;;;1.08;;
31584;SDS011;18191;51.288;12.390;2023-07-29T07:32:22;1.20;;;1.00;;
31584;SDS011;18191;51.288;12.390;2023-07-29T07:37:12;1.58;;;1.10;;
31584;SDS011;18191;51.288;12.390;2023-07-29T07:46:53;2.30;;;1.07;;
31584;SDS011;18191;51.288;12.390;2023-07-29T07:56:34;1.83;;;1.27;;
31584;SDS011;18191;51.288;12.390;2023-07-29T08:01:24;1.90;;;1.20;;
31584;SDS011;18191;51.288;12.390;2023-07-29T08:06:15;2.80;;;1.20;;
31584;SDS011;18191;51.288;12.390;2023-07-29T08:15:55;2.13;;;1.10;;
31584;SDS011;18191;51.288;12.390;2023-07-29T08:21:00;2.10;;;1.00;;
31584;SDS011;18191;51.288;12.390;2023-07-29T08:25:54;1.55;;;0.98;;
31584;SDS011;18191;51.288;12.390;2023-07-29T08:30:46;4.50;;;1.30;;
31584;SDS011;18191;51.288;12.390;2023-07-29T08:45:19;2.17;;;1.02;;
31584;SDS011;18191;51.288;12.390;2023-07-29T08:50:10;3.42;;;1.33;;
31584;SDS011;18191;51.288;12.390;2023-07-29T08:55:01;1.02;;;0.82;;
31584;SDS011;18191;51.288;12.390;2023-07-29T08:59:51;0.80;;;0.80;;
31584;SDS011;18191;51.288;12.390;2023-07-29T09:04:42;1.40;;;1.00;;
31584;SDS011;18191;51.288;12.390;2023-07-29T09:09:32;1.80;;;0.90;;
31584;SDS011;18191;51.288;12.390;2023-07-29T09:14:23;3.07;;;1.10;;
31584;SDS011;18191;51.288;12.390;2023-07-29T09:19:14;1.70;;;1.10;;
31584;SDS011;18191;51.288;12.390;2023-07-29T09:24:04;0.87;;;0.73;;
31584;SDS011;18191;51.288;12.390;2023-07-29T09:28:56;20.23;;;1.27;;
31584;SDS011;18191;51.288;12.390;2023-07-29T09:33:47;1.70;;;0.93;;
31584;SDS011;18191;51.288;12.390;2023-07-29T09:38:38;1.23;;;0.80;;
31584;SDS011;18191;51.288;12.390;2023-07-29T09:43:29;0.68;;;0.60;;
31584;SDS011;18191;51.288;12.390;2023-07-29T09:48:24;1.05;;;0.90;;
31584;SDS011;18191;51.288;12.390;2023-07-29T09:53:14;3.38;;;0.73;;
31584;SDS011;18191;51.288;12.390;2023-07-29T09:58:05;1.70;;;0.93;;
31584;SDS011;18191;51.288;12.390;2023-07-29T10:02:58;0.70;;;0.52;;
31584;SDS011;18191;51.288;12.390;2023-07-29T10:07:49;0.73;;;0.63;;
31584;SDS011;18191;51.288;12.390;2023-07-29T10:12:40;4.53;;;1.00;;
31584;SDS011;18191;51.288;12.390;2023-07-29T10:17:33;0.95;;;0.68;;
31584;SDS011;18191;51.288;12.390;2023-07-29T10:22:36;0.80;;;0.70;;
31584;SDS011;18191;51.288;12.390;2023-07-29T10:27:28;0.95;;;0.70;;
31584;SDS011;18191;51.288;12.390;2023-07-29T10:32:19;1.88;;;1.20;;
31584;SDS011;18191;51.288;12.390;2023-07-29T10:37:14;1.48;;;0.63;;
31584;SDS011;18191;51.288;12.390;2023-07-29T10:42:06;1.00;;;0.70;;
31584;SDS011;18191;51.288;12.390;2023-07-29T10:46:56;3.33;;;1.23;;
31584;SDS011;18191;51.288;12.390;2023-07-29T10:51:47;1.57;;;0.90;;
31584;SDS011;18191;51.288;12.390;2023-07-29T10:56:39;1.17;;;0.70;;
31584;SDS011;18191;51.288;12.390;2023-07-29T11:01:31;5.07;;;1.00;;
31584;SDS011;18191;51.288;12.390;2023-07-29T11:06:24;4.55;;;0.90;;
31584;SDS011;18191;51.288;12.390;2023-07-29T11:11:14;1.38;;;0.82;;
31584;SDS011;18191;51.288;12.390;2023-07-29T11:16:05;2.80;;;0.90;;
31584;SDS011;18191;51.288;12.390;2023-07-29T11:20:56;2.35;;;1.20;;
31584;SDS011;18191;51.288;12.390;2023-07-29T11:25:47;2.33;;;1.08;;
31584;SDS011;18191;51.288;12.390;2023-07-29T11:30:41;1.80;;;1.20;;
31584;SDS011;18191;51.288;12.390;2023-07-29T11:35:31;1.52;;;1.27;;
31584;SDS011;18191;51.288;12.390;2023-07-29T11:40:22;1.58;;;0.98;;
31584;SDS011;18191;51.288;12.390;2023-07-29T11:45:14;1.38;;;0.93;;
31584;SDS011;18191;51.288;12.390;2023-07-29T11:50:05;1.88;;;1.15;;
31584;SDS011;18191;51.288;12.390;2023-07-29T11:55:00;2.03;;;1.20;;
31584;SDS011;18191;51.288;12.390;2023-07-29T11:59:52;1.65;;;1.20;;
31584;SDS011;18191;51.288;12.390;2023-07-29T12:04:43;1.65;;;1.05;;
31584;SDS011;18191;51.288;12.390;2023-07-29T12:09:36;1.92;;;1.10;;
31584;SDS011;18191;51.288;12.390;2023-07-29T12:14:30;1.92;;;1.27;;
31584;SDS011;18191;51.288;12.390;2023-07-29T12:19:21;1.27;;;0.82;;
31584;SDS011;18191;51.288;12.390;2023-07-29T12:24:15;4.63;;;1.70;;
31584;SDS011;18191;51.288;12.390;2023-07-29T12:29:11;2.88;;;1.05;;
31584;SDS011;18191;51.288;12.390;2023-07-29T12:34:06;1.88;;;1.20;;
31584;SDS011;18191;51.288;12.390;2023-07-29T12:38:59;1.23;;;1.10;;
31584;SDS011;18191;51.288;12.390;2023-07-29T12:43:49;6.28;;;1.55;;
31584;SDS011;18191;51.288;12.390;2023-07-29T12:48:40;4.28;;;1.52;;
31584;SDS011;18191;51.288;12.390;2023-07-29T12:53:30;9.03;;;1.20;;
31584;SDS011;18191;51.288;12.390;2023-07-29T12:58:20;2.95;;;1.48;;
31584;SDS011;18191;51.288;12.390;2023-07-29T13:03:11;1.93;;;1.00;;
31584;SDS011;18191;51.288;12.390;2023-07-29T13:08:01;2.20;;;1.23;;
31584;SDS011;18191;51.288;12.390;2023-07-29T13:12:51;3.00;;;1.20;;
31584;SDS011;18191;51.288;12.390;2023-07-29T13:17:42;1.35;;;1.00;;
31584;SDS011;18191;51.288;12.390;2023-07-29T13:22:32;9.73;;;1.67;;
31584;SDS011;18191;51.288;12.390;2023-07-29T13:27:22;1.40;;;1.08;;
31584;SDS011;18191;51.288;12.390;2023-07-29T13:32:14;3.33;;;1.35;;
31584;SDS011;18191;51.288;12.390;2023-07-29T13:37:04;1.33;;;1.10;;
31584;SDS011;18191;51.288;12.390;2023-07-29T13:41:55;2.22;;;1.10;;
31584;SDS011;18191;51.288;12.390;2023-07-29T13:46:45;1.60;;;1.20;;
31584;SDS011;18191;51.288;12.390;2023-07-29T13:51:36;2.55;;;0.98;;
31584;SDS011;18191;51.288;12.390;2023-07-29T13:56:26;3.15;;;1.50;;
31584;SDS011;18191;51.288;12.390;2023-07-29T14:01:16;2.25;;;1.17;;
31584;SDS011;18191;51.288;12.390;2023-07-29T14:06:07;1.25;;;0.93;;
31584;SDS011;18191;51.288;12.390;2023-07-29T14:10:57;4.43;;;1.60;;
31584;SDS011;18191;51.288;12.390;2023-07-29T14:15:47;2.17;;;1.50;;
31584;SDS011;18191;51.288;12.390;2023-07-29T14:20:38;1.88;;;1.13;;
31584;SDS011;18191;51.288;12.390;2023-07-29T14:25:28;3.05;;;1.30;;
31584;SDS011;18191;51.288;12.390;2023-07-29T14:30:19;4.35;;;1.30;;
31584;SDS011;18191;51.288;12.390;2023-07-29T14:35:10;3.00;;;1.00;;
31584;SDS011;18191;51.288;12.390;2023-07-29T14:40:01;2.33;;;1.35;;
31584;SDS011;18191;51.288;12.390;2023-07-29T14:44:51;4.18;;;1.70;;
31584;SDS011;18191;51.288;12.390;2023-07-29T14:49:42;5.07;;;1.93;;
31584;SDS011;18191;51.288;12.390;2023-07-29T14:54:32;2.33;;;1.30;;
31584;SDS011;18191;51.288;12.390;2023-07-29T14:59:22;2.57;;;1.20;;
31584;SDS011;18191;51.288;12.390;2023-07-29T15:04:13;3.53;;;1.58;;
31584;SDS011;18191;51.288;12.390;2023-07-29T15:09:03;5.97;;;1.80;;
31584;SDS011;18191;51.288;12.390;2023-07-29T15:13:53;7.32;;;2.53;;
31584;SDS011;18191;51.288;12.390;2023-07-29T15:18:44;2.50;;;1.40;;
31584;SDS011;18191;51.288;12.390;2023-07-29T15:23:34;6.63;;;1.70;;
31584;SDS011;18191;51.288;12.390;2023-07-29T15:28:25;10.35;;;1.65;;
31584;SDS011;18191;51.288;12.390;2023-07-29T15:33:15;3.00;;;1.73;;
31584;SDS011;18191;51.288;12.390;2023-07-29T15:38:05;5.82;;;1.83;;
31584;SDS011;18191;51.288;12.390;2023-07-29T15:42:56;3.97;;;1.58;;
31584;SDS011;18191;51.288;12.390;2023-07-29T15:47:47;2.87;;;1.43;;
31584;SDS011;18191;51.288;12.390;2023-07-29T15:52:37;5.05;;;2.20;;
31584;SDS011;18191;51.288;12.390;2023-07-29T15:57:32;8.55;;;2.15;;
31584;SDS011;18191;51.288;12.390;2023-07-29T16:02:22;9.48;;;2.10;;
31584;SDS011;18191;51.288;12.390;2023-07-29T16:07:12;4.65;;;1.52;;
31584;SDS011;18191;51.288;12.390;2023-07-29T16:12:03;3.67;;;1.73;;
31584;SDS011;18191;51.288;12.390;2023-07-29T16:16:53;5.25;;;1.63;;
31584;SDS011;18191;51.288;12.390;2023-07-29T16:21:44;3.28;;;1.50;;
31584;SDS011;18191;51.288;12.390;2023-07-29T16:26:34;8.07;;;1.55;;
31584;SDS011;18191;51.288;12.390;2023-07-29T16:31:24;3.45;;;1.70;;
31584;SDS011;18191;51.288;12.390;2023-07-29T16:36:15;4.30;;;2.22;;
31584;SDS011;18191;51.288;12.390;2023-07-29T16:41:05;7.57;;;1.67;;
31584;SDS011;18191;51.288;12.390;2023-07-29T16:45:55;4.15;;;1.83;;
31584;SDS011;18191;51.288;12.390;2023-07-29T16:50:46;3.60;;;1.85;;
31584;SDS011;18191;51.288;12.390;2023-07-29T16:55:36;3.58;;;1.77;;
31584;SDS011;18191;51.288;12.390;2023-07-29T17:00:26;3.35;;;1.90;;
31584;SDS011;18191;51.288;12.390;2023-07-29T17:05:17;4.63;;;2.05;;
31584;SDS011;18191;51.288;12.390;2023-07-29T17:10:07;7.40;;;2.00;;
31584;SDS011;18191;51.288;12.390;2023-07-29T17:14:58;4.10;;;2.22;;
31584;SDS011;18191;51.288;12.390;2023-07-29T17:19:48;4.03;;;2.15;;
31584;SDS011;18191;51.288;12.390;2023-07-29T17:24:38;3.70;;;1.90;;
31584;SDS011;18191;51.288;12.390;2023-07-29T17:29:28;3.67;;;2.03;;
31584;SDS011;18191;51.288;12.390;2023-07-29T17:34:19;5.28;;;1.83;;
31584;SDS011;18191;51.288;12.390;2023-07-29T17:39:10;4.30;;;2.00;;
31584;SDS011;18191;51.288;12.390;2023-07-29T17:44:01;2.70;;;1.80;;
31584;SDS011;18191;51.288;12.390;2023-07-29T17:48:51;4.28;;;1.77;;
31584;SDS011;18191;51.288;12.390;2023-07-29T17:53:41;3.00;;;1.50;;
31584;SDS011;18191;51.288;12.390;2023-07-29T17:58:32;4.35;;;1.98;;
31584;SDS011;18191;51.288;12.390;2023-07-29T18:03:22;5.22;;;1.83;;
31584;SDS011;18191;51.288;12.390;2023-07-29T18:08:13;4.05;;;1.88;;
31584;SDS011;18191;51.288;12.390;2023-07-29T18:13:03;4.43;;;1.38;;
31584;SDS011;18191;51.288;12.390;2023-07-29T18:17:53;2.50;;;1.30;;
31584;SDS011;18191;51.288;12.390;2023-07-29T18:22:44;3.67;;;1.77;;
31584;SDS011;18191;51.288;12.390;2023-07-29T18:27:34;4.85;;;1.55;;
31584;SDS011;18191;51.288;12.390;2023-07-29T18:32:26;4.70;;;1.67;;
31584;SDS011;18191;51.288;12.390;2023-07-29T18:37:16;4.97;;;1.30;;
31584;SDS011;18191;51.288;12.390;2023-07-29T18:42:07;3.47;;;1.73;;
31584;SDS011;18191;51.288;12.390;2023-07-29T18:46:57;2.03;;;1.10;;
31584;SDS011;18191;51.288;12.390;2023-07-29T18:51:47;2.28;;;1.35;;
31584;SDS011;18191;51.288;12.390;2023-07-29T18:56:37;3.20;;;1.80;;
31584;SDS011;18191;51.288;12.390;2023-07-29T19:01:28;6.20;;;2.08;;
31584;SDS011;18191;51.288;12.390;2023-07-29T19:06:18;4.57;;;1.67;;
31584;SDS011;18191;51.288;12.390;2023-07-29T19:11:08;2.95;;;1.52;;
31584;SDS011;18191;51.288;12.390;2023-07-29T19:15:59;5.88;;;1.50;;
31584;SDS011;18191;51.288;12.390;2023-07-29T19:20:52;23.17;;;2.47;;
31584;SDS011;18191;51.288;12.390;2023-07-29T19:25:44;3.35;;;1.67;;
31584;SDS011;18191;51.288;12.390;2023-07-29T19:30:37;6.28;;;1.83;;
31584;SDS011;18191;51.288;12.390;2023-07-29T19:35:28;4.15;;;1.48;;
31584;SDS011;18191;51.288;12.390;2023-07-29T19:40:18;2.60;;;1.23;;
31584;SDS011;18191;51.288;12.390;2023-07-29T19:45:09;2.38;;;1.13;;
31584;SDS011;18191;51.288;12.390;2023-07-29T19:49:59;3.55;;;1.75;;
31584;SDS011;18191;51.288;12.390;2023-07-29T19:54:49;2.47;;;1.40;;
31584;SDS011;18191;51.288;12.390;2023-07-29T19:59:40;2.72;;;1.33;;
31584;SDS011;18191;51.288;12.390;2023-07-29T20:04:30;2.70;;;1.50;;
31584;SDS011;18191;51.288;12.390;2023-07-29T20:09:20;4.90;;;1.38;;
31584;SDS011;18191;51.288;12.390;2023-07-29T20:14:12;2.85;;;1.63;;
31584;SDS011;18191;51.288;12.390;2023-07-29T20:19:03;34.03;;;14.20;;
31584;SDS011;18191;51.288;12.390;2023-07-29T20:23:53;27.65;;;13.52;;
31584;SDS011;18191;51.288;12.390;2023-07-29T20:28:44;9.70;;;5.55;;
31584;SDS011;18191;51.288;12.390;2023-07-29T20:33:36;6.07;;;3.80;;
31584;SDS011;18191;51.288;12.390;2023-07-29T20:38:26;5.93;;;2.33;;
31584;SDS011;18191;51.288;12.390;2023-07-29T20:43:17;5.38;;;1.77;;
31584;SDS011;18191;51.288;12.390;2023-07-29T20:48:08;7.72;;;2.10;;
31584;SDS011;18191;51.288;12.390;2023-07-29T20:52:58;8.30;;;3.00;;
31584;SDS011;18191;51.288;12.390;2023-07-29T20:57:49;5.23;;;2.87;;
31584;SDS011;18191;51.288;12.390;2023-07-29T21:02:39;11.48;;;2.60;;
31584;SDS011;18191;51.288;12.390;2023-07-29T21:07:29;6.30;;;2.80;;
31584;SDS011;18191;51.288;12.390;2023-07-29T21:12:20;8.55;;;2.40;;
31584;SDS011;18191;51.288;12.390;2023-07-29T21:17:10;10.40;;;3.85;;
31584;SDS011;18191;51.288;12.390;2023-07-29T21:22:00;7.75;;;3.40;;
31584;SDS011;18191;51.288;12.390;2023-07-29T21:26:50;10.55;;;3.60;;
31584;SDS011;18191;51.288;12.390;2023-07-29T21:31:41;9.02;;;3.00;;
31584;SDS011;18191;51.288;12.390;2023-07-29T21:36:31;11.02;;;3.95;;
31584;SDS011;18191;51.288;12.390;2023-07-29T21:41:21;7.70;;;3.65;;
31584;SDS011;18191;51.288;12.390;2023-07-29T21:46:12;15.82;;;3.70;;
31584;SDS011;18191;51.288;12.390;2023-07-29T21:51:02;6.35;;;2.85;;
31584;SDS011;18191;51.288;12.390;2023-07-29T21:55:52;10.18;;;3.17;;
31584;SDS011;18191;51.288;12.390;2023-07-29T22:00:44;6.78;;;3.30;;
31584;SDS011;18191;51.288;12.390;2023-07-29T22:05:34;7.95;;;3.45;;
31584;SDS011;18191;51.288;12.390;2023-07-29T22:10:25;9.40;;;3.72;;
31584;SDS011;18191;51.288;12.390;2023-07-29T22:15:15;11.10;;;3.17;;
31584;SDS011;18191;51.288;12.390;2023-07-29T22:20:06;5.90;;;3.05;;
31584;SDS011;18191;51.288;12.390;2023-07-29T22:24:56;9.38;;;3.55;;
31584;SDS011;18191;51.288;12.390;2023-07-29T22:29:47;7.03;;;2.95;;
31584;SDS011;18191;51.288;12.390;2023-07-29T22:34:37;4.60;;;2.87;;
31584;SDS011;18191;51.288;12.390;2023-07-29T22:39:27;5.20;;;3.25;;
31584;SDS011;18191;51.288;12.390;2023-07-29T22:44:18;5.20;;;3.22;;
31584;SDS011;18191;51.288;12.390;2023-07-29T22:49:08;8.25;;;3.28;;
31584;SDS011;18191;51.288;12.390;2023-07-29T22:53:59;6.28;;;3.40;;
31584;SDS011;18191;51.288;12.390;2023-07-29T22:58:49;6.83;;;3.30;;
31584;SDS011;18191;51.288;12.390;2023-07-29T23:03:39;8.43;;;2.90;;
31584;SDS011;18191;51.288;12.390;2023-07-29T23:08:29;6.75;;;3.63;;
31584;SDS011;18191;51.288;12.390;2023-07-29T23:13:20;5.93;;;2.80;;
31584;SDS011;18191;51.288;12.390;2023-07-29T23:18:11;6.75;;;3.40;;
31584;SDS011;18191;51.288;12.390;2023-07-29T23:23:02;10.27;;;3.70;;
31584;SDS011;18191;51.288;12.390;2023-07-29T23:27:53;7.10;;;3.45;;
31584;SDS011;18191;51.288;12.390;2023-07-29T23:32:44;6.55;;;3.30;;
31584;SDS011;18191;51.288;12.390;2023-07-29T23:37:34;9.65;;;2.90;;
31584;SDS011;18191;51.288;12.390;2023-07-29T23:42:24;5.45;;;2.85;;
31584;SDS011;18191;51.288;12.390;2023-07-29T23:47:15;5.57;;;2.80;;
31584;SDS011;18191;51.288;12.390;2023-07-29T23:52:05;4.47;;;2.30;;
31584;SDS011;18191;51.288;12.390;2023-07-29T23:56:56;11.18;;;3.42;;
